Time;durP1;ratioP1;P1;durP2;ratioP2;P2;SDS_P1;SDS_P2;PMS_P1;PMS_P2;Temp;Humidity;BMP_temperature;BMP_pressure;BME280_temperature;BME280_humidity;BME280_pressure;Samples;Min_cycle;Max_cycle;Signal;HPM_P1;HPM_P2
2023/12/08 00:01:15;;;;;;;16.43;11.87;;;0.70;99.90;;;-0.24;90.72;100766.03;5073126;28;20189;-71
2023/12/08 00:03:43;;;;;;;15.13;11.03;;;0.90;99.90;;;-0.17;91.01;100770.81;5073188;28;20228;-71
2023/12/08 00:06:12;;;;;;;16.03;11.83;;;0.90;99.90;;;-0.13;90.75;100766.19;5073179;28;20201;-71
2023/12/08 00:08:41;;;;;;;18.80;12.23;;;1.10;99.90;;;-0.17;90.48;100760.28;5073076;28;20312;-71
2023/12/08 00:11:12;;;;;;;16.87;13.23;;;0.90;99.90;;;-0.18;89.93;100749.88;5075729;28;20217;-71
2023/12/08 00:13:42;;;;;;;18.37;12.83;;;1.00;99.90;;;-0.12;90.59;100742.44;5077102;28;20245;-71
2023/12/08 00:16:10;;;;;;;17.20;13.00;;;1.00;99.90;;;-0.23;89.87;100738.75;5076801;28;20205;-71
2023/12/08 00:18:39;;;;;;;17.30;12.80;;;1.00;99.90;;;-0.22;90.72;100724.66;5076689;28;20251;-71
2023/12/08 00:21:08;;;;;;;19.37;14.90;;;0.90;99.90;;;-0.28;90.13;100727.66;5076910;28;20241;-71
2023/12/08 00:23:36;;;;;;;17.80;13.80;;;0.80;99.90;;;-0.24;90.97;100716.03;5076575;28;20706;-71
2023/12/08 00:26:05;;;;;;;18.67;13.30;;;0.90;99.90;;;-0.25;90.92;100709.06;5076542;28;20580;-71
2023/12/08 00:28:33;;;;;;;16.60;12.93;;;0.80;99.90;;;-0.35;90.56;100710.56;5076724;28;20234;-71
2023/12/08 00:31:01;;;;;;;15.87;11.77;;;0.60;99.90;;;-0.30;91.57;100700.59;5076460;28;20616;-71
2023/12/08 00:33:29;;;;;;;17.00;12.07;;;0.80;99.90;;;-0.32;90.58;100694.59;5076394;28;20229;-71
2023/12/08 00:35:59;;;;;;;17.07;12.63;;;0.90;99.90;;;-0.43;90.25;100689.13;5076314;28;20206;-71
2023/12/08 00:38:28;;;;;;;15.10;11.20;;;0.70;99.90;;;-0.46;90.37;100694.56;5076596;28;20208;-71
2023/12/08 00:40:56;;;;;;;14.23;10.93;;;0.60;99.90;;;-0.48;91.48;100672.78;5076517;28;20216;-71
2023/12/08 00:43:24;;;;;;;14.97;11.53;;;0.60;99.90;;;-0.48;91.08;100670.16;5076116;28;20279;-71
2023/12/08 00:45:53;;;;;;;18.00;11.57;;;0.60;99.90;;;-0.52;91.59;100674.75;5076487;28;20206;-71
2023/12/08 00:48:21;;;;;;;14.77;11.20;;;0.60;99.90;;;-0.55;91.80;100681.03;5076089;28;20753;-71
2023/12/08 00:50:50;;;;;;;14.57;11.20;;;0.60;99.90;;;-0.58;91.57;100659.31;5076391;28;20206;-71
2023/12/08 00:53:19;;;;;;;16.17;11.87;;;0.50;99.90;;;-0.61;92.18;100660.34;5076314;28;20236;-71
2023/12/08 00:55:48;;;;;;;15.23;11.47;;;0.60;99.90;;;-0.57;92.13;100637.34;5076060;28;20201;-71
2023/12/08 00:58:16;;;;;;;17.37;12.60;;;0.50;99.90;;;-0.61;92.28;100628.81;5076271;28;20296;-71
2023/12/08 01:00:45;;;;;;;15.37;11.73;;;0.60;99.90;;;-0.58;93.04;100644.41;5075867;28;20632;-71
2023/12/08 01:03:14;;;;;;;16.23;11.80;;;0.60;99.90;;;-0.59;92.62;100637.47;5076135;28;20232;-71
2023/12/08 01:05:42;;;;;;;17.20;12.20;;;0.60;99.90;;;-0.59;93.43;100637.47;5075811;28;20216;-71
2023/12/08 01:08:10;;;;;;;18.20;12.40;;;0.50;99.90;;;-0.61;92.77;100628.81;5076027;28;20275;-71
2023/12/08 01:10:40;;;;;;;15.73;12.13;;;0.50;99.90;;;-0.60;93.50;100630.50;5076042;28;20299;-71
2023/12/08 01:13:08;;;;;;;15.67;11.93;;;0.60;99.90;;;-0.63;92.39;100624.59;5075960;28;20256;-71
2023/12/08 01:15:36;;;;;;;17.33;11.83;;;0.50;99.90;;;-0.64;92.49;100623.75;5075928;28;20205;-71
2023/12/08 01:18:05;;;;;;;15.70;11.90;;;0.50;99.90;;;-0.62;92.67;100626.28;5075872;28;20202;-71
2023/12/08 01:20:33;;;;;;;16.27;12.27;;;0.40;99.90;;;-0.64;93.63;100625.50;5075866;28;20205;-71
2023/12/08 01:23:01;;;;;;;17.70;12.60;;;0.50;99.90;;;-0.63;92.92;100628.06;5075167;28;20233;-71
2023/12/08 01:25:29;;;;;;;17.63;12.87;;;0.50;99.90;;;-0.64;93.19;100644.78;5075821;28;20233;-71
2023/12/08 01:27:59;;;;;;;17.00;12.70;;;0.60;99.90;;;-0.62;93.25;100650.78;5075608;28;20244;-71
2023/12/08 01:30:27;;;;;;;17.63;13.20;;;0.60;99.90;;;-0.69;92.42;100646.84;5075693;28;20232;-71
2023/12/08 01:32:55;;;;;;;18.60;12.93;;;0.50;99.90;;;-0.67;94.00;100639.69;5075211;28;20236;-71
2023/12/08 01:35:24;;;;;;;17.60;12.90;;;0.50;99.90;;;-0.66;93.80;100625.63;5075205;28;20706;-71
2023/12/08 01:37:52;;;;;;;18.43;12.83;;;0.40;99.90;;;-0.67;93.02;100623.94;5075560;28;20209;-71
2023/12/08 01:40:20;;;;;;;17.83;13.10;;;0.50;99.90;;;-0.65;93.60;100622.03;5075529;28;20206;-71
2023/12/08 01:42:48;;;;;;;18.73;12.83;;;0.50;99.90;;;-0.64;93.34;100612.38;5075461;28;20338;-71
2023/12/08 01:45:18;;;;;;;19.63;13.30;;;0.70;99.90;;;-0.63;93.98;100598.28;5075417;28;20292;-71
2023/12/08 01:47:49;;;;;;;20.07;14.03;;;0.60;99.90;;;-0.64;94.09;100602.72;5075320;28;20212;-71
2023/12/08 01:50:20;;;;;;;18.63;13.73;;;0.50;99.90;;;-0.67;93.14;100592.38;5074888;28;20614;-71
2023/12/08 01:52:50;;;;;;;18.87;12.67;;;0.60;99.90;;;-0.63;93.80;100583.38;5075214;28;20232;-71
2023/12/08 01:55:19;;;;;;;18.40;13.63;;;0.50;99.90;;;-0.71;93.60;100579.50;5075160;28;20253;-71
2023/12/08 01:57:47;;;;;;;19.80;13.10;;;0.40;99.90;;;-0.70;93.67;100571.53;5074989;28;20549;-71
2023/12/08 02:00:18;;;;;;;18.30;13.77;;;0.50;99.90;;;-0.69;94.37;100570.59;5075141;28;20289;-71
2023/12/08 02:02:46;;;;;;;18.50;13.43;;;0.40;99.90;;;-0.70;93.45;100562.81;5074957;28;20240;-71
2023/12/08 02:05:17;;;;;;;18.40;12.87;;;0.50;99.90;;;-0.75;93.33;100559.59;5075067;28;20296;-71
2023/12/08 02:07:45;;;;;;;20.83;14.10;;;0.40;99.90;;;-0.73;93.44;100550.69;5074734;28;20276;-71
2023/12/08 02:10:14;;;;;;;18.70;13.23;;;0.40;99.90;;;-0.74;93.53;100530.59;5074872;28;20324;-71
2023/12/08 02:12:42;;;;;;;17.83;12.80;;;0.50;99.90;;;-0.76;94.03;100514.09;5074824;28;20226;-71
2023/12/08 02:15:12;;;;;;;17.23;12.97;;;0.40;99.90;;;-0.74;93.92;100512.19;5074909;28;20296;-71
2023/12/08 02:17:46;;;;;;;18.20;13.80;;;0.50;99.90;;;-0.74;93.95;100517.47;5074903;28;20217;-71
2023/12/08 02:20:15;;;;;;;18.80;13.47;;;0.40;99.90;;;-0.77;93.75;100519.44;5074506;28;20189;-71
2023/12/08 02:22:44;;;;;;;17.03;13.57;;;0.60;99.90;;;-0.77;93.83;100512.38;5074290;28;20226;-71
2023/12/08 02:25:13;;;;;;;19.80;14.00;;;0.40;99.90;;;-0.80;94.75;100502.06;5074609;28;20240;-71
2023/12/08 02:27:42;;;;;;;18.47;14.07;;;0.30;99.90;;;-0.79;94.77;100503.78;5074245;28;20293;-71
2023/12/08 02:30:10;;;;;;;19.03;14.03;;;0.40;99.90;;;-0.76;93.73;100506.19;5074443;28;20652;-71
2023/12/08 02:32:46;;;;;;;19.77;13.97;;;0.40;99.90;;;-0.75;94.03;100505.25;5073936;28;20673;-71
2023/12/08 02:35:20;;;;;;;20.87;14.27;;;0.60;99.90;;;-0.70;94.45;100502.34;5073628;28;20557;-71
2023/12/08 02:37:51;;;;;;;20.57;13.50;;;0.40;99.90;;;-0.74;93.98;100496.44;5074424;28;20281;-71
2023/12/08 02:40:21;;;;;;;21.30;14.80;;;0.50;99.90;;;-0.72;93.88;100494.53;5073978;28;20648;-71
2023/12/08 02:42:49;;;;;;;20.87;14.33;;;0.50;99.90;;;-0.70;93.80;100497.09;5074168;28;20225;-71
2023/12/08 02:45:19;;;;;;;20.77;14.07;;;0.50;99.90;;;-0.69;94.77;100494.38;5074263;28;20309;-71
2023/12/08 02:47:48;;;;;;;21.30;15.13;;;0.60;99.90;;;-0.69;94.17;100507.53;5074143;28;20208;-71
2023/12/08 02:50:16;;;;;;;19.93;13.87;;;0.60;99.90;;;-0.71;94.00;100493.59;5074028;28;20252;-71
2023/12/08 02:52:44;;;;;;;19.27;14.53;;;0.60;99.90;;;-0.66;95.25;100491.56;5074194;28;20320;-71
2023/12/08 02:55:13;;;;;;;22.97;14.87;;;0.60;99.90;;;-0.64;94.16;100494.06;5073737;28;20667;-71
2023/12/08 02:57:42;;;;;;;21.60;15.03;;;0.60;99.90;;;-0.61;94.25;100491.25;5073982;28;20205;-71
2023/12/08 03:00:11;;;;;;;20.03;14.30;;;0.60;99.90;;;-0.62;95.33;100490.41;5073607;28;20601;-71
2023/12/08 03:02:40;;;;;;;19.17;14.83;;;0.60;99.90;;;-0.63;94.48;100488.72;5073797;28;20225;-71
2023/12/08 03:05:09;;;;;;;20.93;14.97;;;0.60;99.90;;;-0.62;94.53;100506.16;5073559;28;20673;-71
2023/12/08 03:07:37;;;;;;;19.83;14.67;;;0.60;99.90;;;-0.62;95.24;100494.84;5073834;28;20289;-71
2023/12/08 03:10:07;;;;;;;21.87;15.07;;;0.50;99.90;;;-0.60;94.96;100499.03;5073816;28;20324;-71
2023/12/08 03:12:35;;;;;;;19.10;14.40;;;0.60;99.90;;;-0.60;94.72;100493.78;5073790;28;20268;-71
2023/12/08 03:15:06;;;;;;;19.43;14.47;;;0.60;99.90;;;-0.60;95.32;100496.41;5073855;28;20248;-71
2023/12/08 03:17:35;;;;;;;21.43;14.23;;;0.60;99.90;;;-0.60;94.82;100483.28;5073813;28;20589;-71
2023/12/08 03:20:05;;;;;;;22.60;15.53;;;0.60;99.90;;;-0.58;94.78;100481.38;5073762;28;20201;-71
2023/12/08 03:22:33;;;;;;;19.73;15.10;;;0.70;99.90;;;-0.59;95.03;100479.72;5073598;28;20257;-71
2023/12/08 03:25:01;;;;;;;19.90;14.43;;;0.60;99.90;;;-0.57;95.14;100472.56;5073374;28;20255;-71
2023/12/08 03:27:29;;;;;;;18.20;14.30;;;0.60;99.90;;;-0.58;94.68;100468.22;5073677;28;20205;-71
2023/12/08 03:29:57;;;;;;;19.13;14.40;;;0.60;99.90;;;-0.57;95.37;100461.19;5073572;28;20319;-71
2023/12/08 03:32:27;;;;;;;20.70;14.73;;;0.60;99.90;;;-0.57;95.15;100456.78;5073005;28;20723;-71
2023/12/08 03:34:55;;;;;;;18.50;14.00;;;0.60;99.90;;;-0.55;95.39;100459.34;5073627;28;20213;-71
2023/12/08 03:37:23;;;;;;;22.03;15.30;;;0.70;99.90;;;-0.56;94.52;100463.75;5074425;28;20214;-71
2023/12/08 03:39:52;;;;;;;19.37;14.60;;;0.70;99.90;;;-0.56;95.17;100458.47;5073233;28;20610;-71
2023/12/08 03:42:20;;;;;;;20.20;14.80;;;0.70;99.90;;;-0.56;94.18;100444.50;5073426;28;20235;-71
2023/12/08 03:44:48;;;;;;;20.93;14.87;;;0.70;99.90;;;-0.56;95.17;100431.34;5073267;28;20296;-71
2023/12/08 03:47:18;;;;;;;20.80;14.73;;;0.80;99.90;;;-0.58;94.15;100444.56;5073401;28;20233;-71
2023/12/08 03:49:48;;;;;;;20.50;14.53;;;0.80;99.90;;;-0.58;94.71;100438.47;5073334;28;20225;-71
2023/12/08 03:52:16;;;;;;;21.03;14.87;;;0.80;99.90;;;-0.58;93.94;100434.06;5073300;28;20229;-71
2023/12/08 03:54:44;;;;;;;18.60;14.07;;;0.70;99.90;;;-0.57;94.10;100430.50;5073512;28;20300;-70
2023/12/08 03:57:12;;;;;;;17.33;13.97;;;0.70;99.90;;;-0.55;93.87;100412.00;5073292;28;20300;-70
2023/12/08 03:59:43;;;;;;;23.07;15.00;;;0.60;99.90;;;-0.56;94.20;100408.53;5073349;28;20205;-70
2023/12/08 04:02:11;;;;;;;21.47;15.80;;;0.70;99.90;;;-0.57;93.91;100398.94;5073580;28;20279;-71
2023/12/08 04:04:39;;;;;;;22.23;15.47;;;0.80;99.90;;;-0.59;93.03;100413.97;5073215;28;20350;-71
2023/12/08 04:07:09;;;;;;;20.50;13.87;;;0.70;99.90;;;-0.58;93.10;100404.28;5072958;28;20209;-71
2023/12/08 04:09:37;;;;;;;18.67;12.87;;;0.60;99.90;;;-0.56;93.68;100394.53;5073223;28;20312;-71
2023/12/08 04:12:06;;;;;;;22.00;14.83;;;0.70;99.90;;;-0.57;93.43;100393.69;5072798;28;20312;-71
2023/12/08 04:14:34;;;;;;;19.93;13.73;;;0.70;99.90;;;-0.55;93.06;100390.97;5073298;28;20205;-71
2023/12/08 04:17:02;;;;;;;19.67;14.33;;;0.70;99.90;;;-0.58;92.56;100402.50;5073193;28;20212;-71
2023/12/08 04:19:30;;;;;;;22.13;13.93;;;0.70;99.90;;;-0.54;92.88;100390.84;5072797;28;20205;-71
2023/12/08 04:21:59;;;;;;;20.00;13.87;;;0.70;99.90;;;-0.52;93.19;100396.88;5072867;28;20778;-71
2023/12/08 04:24:28;;;;;;;19.60;14.40;;;0.70;99.90;;;-0.54;93.12;100411.03;5073026;28;20254;-71
2023/12/08 04:26:56;;;;;;;19.27;13.77;;;0.70;99.90;;;-0.54;92.75;100396.09;5072771;28;20759;-71
2023/12/08 04:29:24;;;;;;;20.67;13.50;;;0.70;99.90;;;-0.49;93.60;100392.34;5072707;28;20201;-71
2023/12/08 04:31:53;;;;;;;19.40;14.00;;;0.70;99.90;;;-0.51;93.21;100398.53;5072682;28;20260;-71
2023/12/08 04:34:21;;;;;;;18.10;14.10;;;0.70;99.90;;;-0.51;92.80;100393.28;5072833;28;20230;-71
2023/12/08 04:36:49;;;;;;;17.60;13.43;;;0.70;99.90;;;-0.52;93.25;100383.72;5072670;28;20205;-71
2023/12/08 04:39:18;;;;;;;19.60;14.80;;;0.70;99.90;;;-0.52;92.85;100380.25;5072949;28;20283;-71
2023/12/08 04:41:48;;;;;;;18.70;13.43;;;0.70;99.90;;;-0.51;92.35;100384.53;5072826;28;20240;-71
2023/12/08 04:44:17;;;;;;;16.33;13.07;;;0.70;99.90;;;-0.52;92.32;100386.34;5072596;28;20639;-71
2023/12/08 04:46:45;;;;;;;20.30;14.43;;;0.80;99.90;;;-0.51;92.48;100385.38;5072895;28;20252;-71
2023/12/08 04:49:13;;;;;;;17.97;13.63;;;0.70;99.90;;;-0.49;92.55;100369.53;5072496;28;20251;-71
2023/12/08 04:51:42;;;;;;;16.50;12.23;;;0.80;99.90;;;-0.46;93.03;100379.00;5072648;28;20283;-71
2023/12/08 04:54:10;;;;;;;20.50;12.60;;;0.80;99.90;;;-0.46;92.64;100384.25;5073012;28;20245;-71
2023/12/08 04:56:38;;;;;;;15.97;12.33;;;0.80;99.90;;;-0.47;92.09;100377.31;5072539;28;20729;-71
2023/12/08 04:59:09;;;;;;;17.53;12.90;;;0.80;99.90;;;-0.48;92.82;100373.00;5076245;28;20259;-71
2023/12/08 05:01:37;;;;;;;18.40;12.87;;;0.80;99.90;;;-0.46;93.22;100376.38;5076261;28;20226;-71
2023/12/08 05:04:05;;;;;;;17.33;12.23;;;0.70;99.90;;;-0.45;93.15;100370.19;5076207;28;20292;-71
2023/12/08 05:06:33;;;;;;;16.03;11.97;;;0.80;99.90;;;-0.45;91.82;100378.91;5076148;28;20206;-71
2023/12/08 05:09:02;;;;;;;15.90;12.17;;;0.80;99.90;;;-0.45;92.65;100386.81;5076138;28;20259;-71
2023/12/08 05:11:30;;;;;;;14.63;11.37;;;0.80;99.90;;;-0.44;91.84;100377.09;5075919;28;20240;-71
2023/12/08 05:13:59;;;;;;;16.23;11.53;;;0.80;99.90;;;-0.43;92.86;100384.06;5076075;28;20244;-71
2023/12/08 05:16:28;;;;;;;16.17;11.57;;;0.90;99.90;;;-0.42;92.69;100385.75;5075989;28;20631;-71
2023/12/08 05:18:56;;;;;;;15.47;12.27;;;0.80;99.90;;;-0.43;91.56;100390.16;5075958;28;20248;-71
2023/12/08 05:21:25;;;;;;;15.53;12.00;;;0.80;99.90;;;-0.43;92.45;100389.31;5075815;28;20236;-71
2023/12/08 05:23:53;;;;;;;15.53;11.47;;;0.90;99.90;;;-0.40;91.97;100395.22;5075954;28;20232;-71
2023/12/08 05:26:21;;;;;;;15.37;11.07;;;0.80;99.90;;;-0.41;91.73;100397.97;5075837;28;20228;-71
2023/12/08 05:28:49;;;;;;;15.87;11.90;;;0.80;99.90;;;-0.41;92.05;100387.44;5075800;28;20247;-71
2023/12/08 05:31:18;;;;;;;15.63;10.17;;;0.90;99.90;;;-0.42;90.65;100381.34;5075224;28;20265;-71
2023/12/08 05:33:47;;;;;;;13.33;10.83;;;0.80;99.90;;;-0.38;91.52;100384.63;5075276;28;20209;-71
2023/12/08 05:36:17;;;;;;;14.60;10.80;;;0.90;99.90;;;-0.39;90.81;100382.91;5075676;28;20263;-71
2023/12/08 05:38:45;;;;;;;16.97;11.03;;;0.80;99.90;;;-0.40;91.13;100379.44;5075260;28;20583;-71
2023/12/08 05:41:13;;;;;;;14.23;11.33;;;0.80;99.90;;;-0.39;90.87;100381.13;5075500;28;20202;-71
2023/12/08 05:43:41;;;;;;;13.13;10.43;;;0.80;99.90;;;-0.36;91.81;100380.09;5075153;28;20277;-71
2023/12/08 05:46:09;;;;;;;12.43;10.43;;;0.90;99.90;;;-0.35;91.13;100385.25;5075397;28;20259;-71
2023/12/08 05:48:38;;;;;;;14.00;10.77;;;0.90;99.90;;;-0.36;90.75;100380.09;5075345;28;20205;-71
2023/12/08 05:51:08;;;;;;;13.63;10.53;;;0.90;99.90;;;-0.37;90.95;100383.66;5075282;28;20282;-71
2023/12/08 05:53:36;;;;;;;12.90;10.10;;;0.90;99.90;;;-0.36;90.33;100374.81;5076018;28;20240;-71
2023/12/08 05:56:08;;;;;;;14.07;9.93;;;0.90;99.90;;;-0.35;90.96;100376.53;5074977;28;20193;-71
2023/12/08 05:58:37;;;;;;;12.53;9.63;;;0.90;99.90;;;-0.33;90.28;100362.31;5075208;28;20256;-71
2023/12/08 06:01:06;;;;;;;12.33;9.37;;;0.90;99.90;;;-0.37;90.09;100363.47;5075217;28;20202;-71
2023/12/08 06:03:34;;;;;;;13.10;10.03;;;0.80;99.90;;;-0.35;90.27;100358.13;5074657;28;20225;-71
2023/12/08 06:06:02;;;;;;;11.70;9.57;;;1.00;99.90;;;-0.34;90.43;100346.66;5075047;28;20209;-71
2023/12/08 06:08:32;;;;;;;12.60;9.67;;;1.00;99.90;;;-0.33;90.16;100338.66;5074816;28;20201;-71
2023/12/08 06:11:00;;;;;;;12.93;9.77;;;0.90;99.90;;;-0.33;91.17;100350.94;5074832;28;20229;-71
2023/12/08 06:13:28;;;;;;;13.27;10.33;;;0.90;99.90;;;-0.35;89.69;100353.69;5074851;28;20252;-71
2023/12/08 06:15:56;;;;;;;12.70;10.07;;;0.90;99.90;;;-0.35;89.82;100358.97;5074822;28;20254;-71
2023/12/08 06:18:25;;;;;;;13.03;10.07;;;0.90;99.90;;;-0.32;90.35;100357.91;5074828;28;20213;-71
2023/12/08 06:20:53;;;;;;;14.13;10.43;;;0.90;99.90;;;-0.31;90.22;100351.72;5074699;28;20232;-71
2023/12/08 06:23:22;;;;;;;14.57;10.23;;;0.90;99.90;;;-0.29;90.52;100360.34;5074683;28;20221;-71
2023/12/08 06:25:52;;;;;;;13.03;9.90;;;0.90;99.90;;;-0.32;90.94;100353.50;5074429;28;20614;-71
2023/12/08 06:28:20;;;;;;;12.53;9.70;;;0.90;99.90;;;-0.32;89.84;100356.13;5074308;28;20206;-71
2023/12/08 06:30:48;;;;;;;12.40;9.97;;;1.00;99.90;;;-0.30;91.04;100358.63;5074235;28;20264;-71
2023/12/08 06:33:16;;;;;;;12.03;9.90;;;1.00;99.90;;;-0.29;90.31;100365.59;5074163;28;20233;-71
2023/12/08 06:35:44;;;;;;;13.03;9.97;;;1.10;99.90;;;-0.30;90.96;100359.47;5074434;28;20236;-71
2023/12/08 06:38:13;;;;;;;12.23;9.00;;;0.90;99.90;;;-0.27;90.67;100361.06;5074042;28;20216;-71
2023/12/08 06:40:42;;;;;;;13.67;9.90;;;1.00;99.90;;;-0.26;90.87;100360.13;5074313;28;20288;-71
2023/12/08 06:43:11;;;;;;;11.83;9.17;;;1.10;99.90;;;-0.27;90.62;100355.81;5074200;28;20232;-71
2023/12/08 06:45:39;;;;;;;12.13;8.93;;;1.00;99.90;;;-0.28;91.02;100357.63;5074204;28;20292;-71
2023/12/08 06:48:08;;;;;;;13.47;9.27;;;1.00;99.90;;;-0.27;90.48;100353.16;5074184;28;20217;-70
2023/12/08 06:50:36;;;;;;;11.33;8.87;;;0.90;99.90;;;-0.26;90.45;100352.22;5073777;28;20218;-70
2023/12/08 06:53:05;;;;;;;13.83;9.40;;;0.90;99.90;;;-0.29;89.89;100355.06;5074011;28;20225;-70
2023/12/08 06:55:33;;;;;;;13.97;9.43;;;1.00;99.90;;;-0.31;89.79;100344.63;5073725;28;20610;-70
2023/12/08 06:58:01;;;;;;;12.93;9.40;;;1.10;99.90;;;-0.29;89.79;100344.56;5073873;28;20235;-70
2023/12/08 07:00:30;;;;;;;11.80;10.03;;;1.00;99.90;;;-0.28;89.92;100335.72;5073626;28;20744;-70
2023/12/08 07:02:59;;;;;;;13.23;10.70;;;0.90;99.90;;;-0.28;89.93;100340.97;5073566;28;20225;-70
2023/12/08 07:05:27;;;;;;;12.57;10.07;;;1.00;99.90;;;-0.29;89.01;100337.50;5073988;28;20205;-70
2023/12/08 07:07:56;;;;;;;12.37;9.50;;;1.10;99.90;;;-0.29;89.87;100339.28;5073957;28;20241;-70
2023/12/08 07:10:24;;;;;;;13.23;10.07;;;1.00;99.90;;;-0.29;89.71;100339.28;5073851;28;20241;-70
2023/12/08 07:12:52;;;;;;;12.57;9.83;;;1.00;99.90;;;-0.27;89.66;100329.50;5073334;28;20713;-71
2023/12/08 07:15:21;;;;;;;13.73;10.03;;;1.00;99.90;;;-0.28;89.35;100338.34;5073740;28;20227;-71
2023/12/08 07:17:50;;;;;;;13.47;10.77;;;1.00;99.90;;;-0.27;90.11;100338.22;5073396;28;20731;-71
2023/12/08 07:20:19;;;;;;;11.90;10.00;;;1.00;99.90;;;-0.25;90.21;100339.00;5073198;28;20240;-71
2023/12/08 07:22:47;;;;;;;15.07;10.27;;;1.00;99.90;;;-0.26;90.17;100339.94;5073286;28;20253;-71
2023/12/08 07:25:16;;;;;;;14.20;10.70;;;0.90;99.90;;;-0.28;90.71;100339.19;5073661;28;20237;-71
2023/12/08 07:27:44;;;;;;;13.80;9.87;;;1.00;99.90;;;-0.25;91.27;100344.25;5073579;28;20232;-71
2023/12/08 07:30:13;;;;;;;13.93;11.03;;;1.00;99.90;;;-0.25;91.03;100346.88;5073651;28;20208;-71
2023/12/08 07:32:41;;;;;;;15.83;11.70;;;1.00;99.90;;;-0.25;91.08;100346.88;5073513;28;20450;-71
2023/12/08 07:35:11;;;;;;;15.87;11.50;;;1.00;99.90;;;-0.25;91.25;100343.41;5073523;28;20201;-71
2023/12/08 07:37:41;;;;;;;13.87;10.83;;;1.00;99.90;;;-0.26;90.53;100337.31;5073508;28;20248;-71
2023/12/08 07:40:11;;;;;;;15.90;11.27;;;1.10;99.90;;;-0.26;90.72;100339.94;5073129;28;20728;-71
2023/12/08 07:42:39;;;;;;;14.23;10.87;;;1.00;99.90;;;-0.28;91.87;100338.34;5073340;28;20229;-71
2023/12/08 07:45:09;;;;;;;15.20;12.17;;;0.90;99.90;;;-0.25;92.47;100340.78;5073413;28;20212;-71
2023/12/08 07:47:38;;;;;;;16.97;12.17;;;1.00;99.90;;;-0.24;92.31;100331.94;5073080;28;20575;-71
2023/12/08 07:50:09;;;;;;;16.90;13.07;;;1.00;99.90;;;-0.23;93.11;100341.50;5073384;28;20205;-71
2023/12/08 07:52:41;;;;;;;16.60;12.50;;;1.00;99.90;;;-0.23;93.32;100339.72;5073242;28;20229;-71
2023/12/08 07:55:10;;;;;;;16.67;12.73;;;1.00;99.90;;;-0.21;94.07;100331.75;5073068;28;20708;-71
2023/12/08 07:57:38;;;;;;;17.03;12.67;;;1.00;99.90;;;-0.22;94.31;100335.31;5073338;28;20297;-71
2023/12/08 08:00:10;;;;;;;19.33;14.10;;;1.00;99.90;;;-0.21;95.45;100342.25;5073342;28;20271;-71
2023/12/08 08:02:39;;;;;;;17.43;12.53;;;1.00;99.90;;;-0.20;95.61;100343.94;5073097;28;20233;-71
2023/12/08 08:05:08;;;;;;;18.30;13.57;;;1.00;99.90;;;-0.21;95.67;100337.00;5073213;28;20205;-71
2023/12/08 08:07:38;;;;;;;19.87;13.77;;;1.00;99.90;;;-0.21;96.42;100337.00;5073213;28;20216;-71
2023/12/08 08:10:07;;;;;;;19.07;14.47;;;1.10;99.90;;;-0.19;96.54;100335.94;5073202;28;20300;-71
2023/12/08 08:12:35;;;;;;;20.17;14.13;;;1.00;99.90;;;-0.20;96.93;100328.16;5073016;28;20236;-71
2023/12/08 08:15:05;;;;;;;21.97;15.30;;;1.20;99.90;;;-0.20;97.42;100325.50;5072857;28;20667;-71
2023/12/08 08:17:33;;;;;;;19.77;14.33;;;1.00;99.90;;;-0.21;97.52;100329.13;5072835;28;20650;-71
2023/12/08 08:20:02;;;;;;;21.70;14.90;;;1.00;99.90;;;-0.22;98.04;100330.91;5072780;28;20368;-71
2023/12/08 08:22:30;;;;;;;21.87;15.27;;;1.10;99.90;;;-0.24;98.76;100329.31;5072992;28;20308;-71
2023/12/08 08:25:02;;;;;;;26.20;16.40;;;1.00;99.90;;;-0.22;98.36;100324.78;5073061;28;20216;-71
2023/12/08 08:27:31;;;;;;;22.80;15.23;;;1.10;99.90;;;-0.22;98.96;100319.53;5073008;28;20297;-71
2023/12/08 08:30:00;;;;;;;23.40;16.50;;;1.10;99.90;;;-0.24;99.66;100326.69;5073058;28;20205;-71
2023/12/08 08:32:29;;;;;;;24.87;18.13;;;1.00;99.90;;;-0.25;99.75;100335.50;5073977;28;20237;-71
2023/12/08 08:34:58;;;;;;;25.37;16.03;;;1.00;99.90;;;-0.26;99.51;100344.34;5076757;28;20250;-71
2023/12/08 08:37:28;;;;;;;25.40;16.40;;;0.90;99.90;;;-0.24;99.63;100340.66;5076750;28;20197;-71
2023/12/08 08:39:57;;;;;;;22.60;15.03;;;1.00;99.90;;;-0.24;99.47;100348.56;5076623;28;20259;-71
2023/12/08 08:42:27;;;;;;;23.73;15.63;;;1.00;99.90;;;-0.23;99.91;100352.03;5076518;28;20675;-71
2023/12/08 08:44:55;;;;;;;22.17;15.20;;;1.00;99.90;;;-0.23;99.90;100349.41;5076560;28;20202;-71
2023/12/08 08:47:23;;;;;;;23.57;15.60;;;1.00;99.90;;;-0.24;99.97;100350.38;5076514;28;20209;-71
2023/12/08 08:49:52;;;;;;;23.57;15.30;;;1.00;99.90;;;-0.23;100.00;100359.91;5076761;28;20213;-71
2023/12/08 08:52:21;;;;;;;23.37;16.07;;;0.90;99.90;;;-0.22;99.65;100361.63;5075643;28;20320;-71
2023/12/08 08:54:49;;;;;;;21.93;15.97;;;1.10;99.90;;;-0.20;99.19;100362.34;5076213;28;20751;-71
2023/12/08 08:57:17;;;;;;;22.43;15.47;;;1.00;99.90;;;-0.19;100.00;100367.53;5076099;28;20205;-71
2023/12/08 08:59:47;;;;;;;25.60;16.60;;;1.00;99.90;;;-0.17;99.72;100373.50;5076115;28;20210;-71
2023/12/08 09:02:15;;;;;;;21.60;15.80;;;1.10;99.90;;;-0.16;100.00;100362.06;5076089;28;20221;-72
2023/12/08 09:04:44;;;;;;;21.53;15.80;;;1.10;99.90;;;-0.16;99.75;100367.31;5075736;28;20208;-72
2023/12/08 09:07:12;;;;;;;145.50;123.43;;;1.00;99.90;;;-0.13;99.44;100355.72;5076160;28;20209;-72
2023/12/08 09:09:40;;;;;;;29.23;19.20;;;1.10;99.90;;;-0.16;99.92;100361.19;5076921;28;20228;-71
2023/12/08 09:12:12;;;;;;;24.13;16.50;;;1.10;99.90;;;-0.15;99.66;100362.91;5075513;28;20248;-71
2023/12/08 09:14:40;;;;;;;23.70;16.90;;;1.10;99.90;;;-0.15;99.83;100358.47;5076057;28;20209;-71
2023/12/08 09:17:09;;;;;;;22.47;15.47;;;1.10;99.90;;;-0.17;100.00;100370.06;5075983;28;20255;-72
2023/12/08 09:19:40;;;;;;;25.70;17.20;;;1.10;99.90;;;-0.15;100.00;100369.00;5075414;28;20242;-72
2023/12/08 09:22:08;;;;;;;25.13;16.13;;;1.10;99.90;;;-0.19;100.00;100366.66;5075652;28;20225;-72
2023/12/08 09:24:36;;;;;;;21.87;16.00;;;1.10;99.90;;;-0.18;100.00;100361.31;5075512;28;20617;-72
2023/12/08 09:27:05;;;;;;;22.37;16.17;;;1.10;99.90;;;-0.15;100.00;100365.53;5075318;28;20300;-72
2023/12/08 09:29:34;;;;;;;22.43;16.53;;;1.00;99.90;;;-0.13;100.00;100355.72;5075757;28;20205;-72
2023/12/08 09:32:02;;;;;;;24.03;16.00;;;1.10;99.90;;;-0.14;100.00;100354.88;5075452;28;20237;-72
2023/12/08 09:34:39;;;;;;;24.03;16.87;;;1.10;99.90;;;-0.14;100.00;100362.78;5075485;28;20585;-72
2023/12/08 09:37:07;;;;;;;23.70;16.67;;;1.10;99.90;;;-0.12;100.00;100357.44;5075534;28;20190;-72
2023/12/08 09:39:56;;;;;;;25.50;17.57;;;1.10;99.90;;;-0.14;100.00;100361.97;5076037;28;20204;-72
2023/12/08 09:42:33;;;;;;;26.50;17.73;;;1.00;99.90;;;-0.11;100.00;100361.75;5075308;28;20327;-72
2023/12/08 09:45:04;;;;;;;26.70;16.60;;;1.10;99.90;;;-0.11;100.00;100351.22;5075622;28;20197;-72
2023/12/08 09:47:35;;;;;;;25.80;17.90;;;1.10;99.90;;;-0.11;100.00;100348.59;5075256;28;20559;-72
2023/12/08 09:50:07;;;;;;;27.07;18.77;;;1.10;99.90;;;-0.13;100.00;100350.47;5075499;28;20228;-72
2023/12/08 09:52:35;;;;;;;26.63;19.67;;;1.00;99.90;;;-0.14;100.00;100339.09;5074892;28;20221;-72
2023/12/08 09:55:05;;;;;;;26.77;18.87;;;1.00;99.90;;;-0.16;100.00;100334.91;5075002;28;20762;-73
2023/12/08 09:57:35;;;;;;;23.93;16.67;;;1.00;99.90;;;-0.22;100.00;100336.16;5075261;28;20209;-73
2023/12/08 10:00:10;;;;;;;23.77;16.33;;;1.00;99.90;;;-0.19;100.00;100333.31;5075139;28;20296;-73
2023/12/08 10:02:39;;;;;;;24.50;15.80;;;1.00;99.90;;;-0.16;100.00;100332.25;5075478;28;20256;-73
2023/12/08 10:05:10;;;;;;;27.10;16.40;;;1.10;99.90;;;-0.17;100.00;100325.34;5075094;28;20202;-73
2023/12/08 10:07:43;;;;;;;23.33;16.53;;;1.00;99.90;;;-0.16;100.00;100319.09;5075054;28;20276;-73
2023/12/08 10:10:12;;;;;;;22.97;15.87;;;1.00;99.90;;;-0.17;100.00;100306.91;5075010;28;20198;-73
2023/12/08 10:12:41;;;;;;;24.90;16.93;;;1.00;99.90;;;-0.18;100.00;100300.81;5074482;28;20234;-73